Time;durP1;ratioP1;P1;durP2;ratioP2;P2;SDS_P1;SDS_P2;PMS_P1;PMS_P2;Temp;Humidity;BMP_temperature;BMP_pressure;BME280_temperature;BME280_humidity;BME280_pressure;Samples;Min_cycle;Max_cycle;Signal;HPM_P1;HPM_P2
2022/01/26 00:05:43;;;;;;;152.12;66.55;;;;;;;;;;769714;179;919198;-63
2022/01/26 00:05:55;;;;;;;177.45;64.60;;;;;;;;;;770511;181;919297;-63
2022/01/26 00:08:24;;;;;;;170.97;65.43;;;;;;;;;;779305;180;919931;-62
2022/01/26 00:10:45;;;;;;;174.10;66.37;;;;;;;;;;767531;178;920045;-62
2022/01/26 00:13:11;;;;;;;168.40;63.97;;;;;;;;;;774307;178;918871;-63
2022/01/26 00:15:37;;;;;;;160.43;61.93;;;;;;;;;;780641;178;918539;-63
2022/01/26 00:18:03;;;;;;;179.63;64.40;;;;;;;;;;773623;181;919191;-63
2022/01/26 00:20:40;;;;;;;165.63;64.77;;;;;;;;;;765605;181;1021799;-63
2022/01/26 00:25:47;;;;;;;201.13;73.87;;;;;;;;;;775350;180;919083;-62
2022/01/26 00:28:29;;;;;;;178.17;68.30;;;;;;;;;;779478;179;919519;-62
2022/01/26 00:41:02;;;;;;;232.65;85.25;;;;;;;;;;773934;181;919442;-62
2022/01/26 00:43:24;;;;;;;225.00;77.27;;;;;;;;;;769581;181;1023229;-62
2022/01/26 00:45:49;;;;;;;220.00;85.62;;;;;;;;;;768378;181;918891;-63
2022/01/26 00:48:18;;;;;;;226.33;84.43;;;;;;;;;;770812;180;919279;-63
2022/01/26 00:50:37;;;;;;;221.50;83.00;;;;;;;;;;772458;179;918482;-62
2022/01/26 00:53:03;;;;;;;232.13;90.50;;;;;;;;;;770215;177;919816;-63
2022/01/26 00:55:29;;;;;;;229.30;85.57;;;;;;;;;;764936;180;931567;-62
2022/01/26 00:57:55;;;;;;;230.83;85.60;;;;;;;;;;770499;180;919899;-63
2022/01/26 01:00:21;;;;;;;228.43;84.37;;;;;;;;;;774463;178;918794;-63
2022/01/26 01:02:47;;;;;;;216.53;84.27;;;;;;;;;;761892;184;919448;-62
2022/01/26 01:05:18;;;;;;;238.37;83.13;;;;;;;;;;776865;181;919398;-63
2022/01/26 01:07:40;;;;;;;216.17;83.10;;;;;;;;;;775098;180;918419;-63
2022/01/26 01:10:05;;;;;;;220.87;88.00;;;;;;;;;;770591;180;918722;-62
2022/01/26 01:12:33;;;;;;;233.13;90.60;;;;;;;;;;769878;182;919736;-63
2022/01/26 01:14:57;;;;;;;198.53;77.47;;;;;;;;;;768036;178;918601;-63
2022/01/26 01:17:26;;;;;;;210.63;82.70;;;;;;;;;;769377;178;917828;-62
2022/01/26 01:20:15;;;;;;;180.30;72.87;;;;;;;;;;767801;180;922710;-62
2022/01/26 01:25:54;;;;;;;229.07;84.63;;;;;;;;;;751453;184;915269;-62
2022/01/26 01:27:58;;;;;;;221.50;85.18;;;;;;;;;;776156;179;919378;-61
2022/01/26 01:30:27;;;;;;;206.90;77.90;;;;;;;;;;763236;181;915210;-62
2022/01/26 01:32:51;;;;;;;212.53;84.90;;;;;;;;;;768568;181;919167;-63
2022/01/26 01:35:09;;;;;;;219.68;75.05;;;;;;;;;;776221;178;919189;-61
2022/01/26 01:37:31;;;;;;;197.37;78.47;;;;;;;;;;775183;177;919912;-63
2022/01/26 01:39:57;;;;;;;213.00;78.20;;;;;;;;;;773456;179;919495;-63
2022/01/26 01:42:23;;;;;;;203.80;79.15;;;;;;;;;;773557;177;918036;-63
2022/01/26 01:44:49;;;;;;;203.37;73.97;;;;;;;;;;774923;180;919551;-63
2022/01/26 01:47:14;;;;;;;180.93;71.30;;;;;;;;;;753231;185;1021932;-62
2022/01/26 01:49:40;;;;;;;187.73;71.17;;;;;;;;;;769052;180;920157;-63
2022/01/26 01:52:12;;;;;;;200.70;77.70;;;;;;;;;;777344;179;918747;-62
2022/01/26 01:54:32;;;;;;;242.60;83.30;;;;;;;;;;764827;181;918667;-62
2022/01/26 01:56:58;;;;;;;230.07;85.07;;;;;;;;;;768771;181;919824;-63
2022/01/26 01:59:24;;;;;;;212.67;76.33;;;;;;;;;;778610;180;919430;-62
2022/01/26 02:01:50;;;;;;;188.60;76.78;;;;;;;;;;773026;180;921312;-63
2022/01/26 02:04:15;;;;;;;222.10;74.40;;;;;;;;;;771969;178;919379;-63
2022/01/26 02:06:43;;;;;;;195.07;73.43;;;;;;;;;;765633;181;918939;-62
2022/01/26 02:09:07;;;;;;;201.47;74.30;;;;;;;;;;777523;181;920521;-62
2022/01/26 02:11:33;;;;;;;187.73;65.53;;;;;;;;;;772706;180;919308;-63
2022/01/26 02:14:05;;;;;;;177.87;70.40;;;;;;;;;;776215;177;919194;-63
2022/01/26 02:19:23;;;;;;;170.70;63.10;;;;;;;;;;774671;180;921197;-62
2022/01/26 02:52:16;;;;;;;217.77;81.00;;;;;;;;;;771417;180;920099;-63
2022/01/26 02:55:43;;;;;;;231.63;83.60;;;;;;;;;;763047;180;925049;-63
2022/01/26 03:00:26;;;;;;;205.27;83.60;;;;;;;;;;778169;177;919171;-62
2022/01/26 03:02:43;;;;;;;205.90;74.30;;;;;;;;;;772778;180;920085;-61
2022/01/26 03:05:08;;;;;;;186.53;73.97;;;;;;;;;;766338;182;918588;-61
2022/01/26 03:07:48;;;;;;;183.50;71.40;;;;;;;;;;770682;181;919049;-62
2022/01/26 03:10:20;;;;;;;178.87;73.43;;;;;;;;;;773396;178;918930;-62
2022/01/26 03:12:59;;;;;;;179.37;67.47;;;;;;;;;;772248;178;912311;-62
2022/01/26 03:15:29;;;;;;;172.23;65.40;;;;;;;;;;771763;179;912293;-62
2022/01/26 03:18:16;;;;;;;164.15;66.65;;;;;;;;;;776942;179;942909;-62
2022/01/26 03:20:20;;;;;;;162.13;64.60;;;;;;;;;;776606;180;918869;-62
2022/01/26 03:34:07;;;;;;;142.30;57.70;;;;;;;;;;775008;179;940437;-62
2022/01/26 03:35:46;;;;;;;141.70;55.47;;;;;;;;;;762387;181;921312;-62
2022/01/26 03:38:08;;;;;;;137.03;53.10;;;;;;;;;;760702;181;919034;-62
2022/01/26 03:40:36;;;;;;;140.80;58.55;;;;;;;;;;773770;178;917797;-63
2022/01/26 03:42:59;;;;;;;133.63;54.33;;;;;;;;;;774661;179;919130;-62
2022/01/26 03:45:25;;;;;;;126.40;55.97;;;;;;;;;;773405;180;919742;-62
2022/01/26 03:47:50;;;;;;;124.37;50.60;;;;;;;;;;760493;184;919311;-62
2022/01/26 03:50:16;;;;;;;128.30;54.90;;;;;;;;;;767068;182;935985;-62
2022/01/26 03:52:42;;;;;;;118.20;50.67;;;;;;;;;;774672;180;919292;-62
2022/01/26 03:55:08;;;;;;;121.23;50.03;;;;;;;;;;762334;180;919762;-62
2022/01/26 03:57:34;;;;;;;132.37;51.37;;;;;;;;;;772852;180;919230;-62
2022/01/26 04:00:00;;;;;;;124.47;50.27;;;;;;;;;;781614;178;919134;-62
2022/01/26 04:02:26;;;;;;;98.12;46.30;;;;;;;;;;771006;179;918998;-62
2022/01/26 04:04:58;;;;;;;106.43;44.70;;;;;;;;;;774510;181;919242;-61
2022/01/26 04:07:18;;;;;;;102.60;45.80;;;;;;;;;;777574;180;919068;-63
2022/01/26 04:09:43;;;;;;;98.50;44.33;;;;;;;;;;773605;181;928520;-63
2022/01/26 04:12:10;;;;;;;93.33;42.10;;;;;;;;;;777754;180;919575;-62
2022/01/26 04:14:36;;;;;;;85.00;37.70;;;;;;;;;;779438;177;919305;-62
2022/01/26 04:17:01;;;;;;;87.37;38.23;;;;;;;;;;763429;177;2408303;-63
2022/01/26 04:19:30;;;;;;;98.97;35.67;;;;;;;;;;772059;180;919871;-62
2022/01/26 04:22:00;;;;;;;80.23;35.53;;;;;;;;;;767257;181;918709;-62
2022/01/26 04:24:27;;;;;;;82.10;37.90;;;;;;;;;;779159;179;914971;-62
2022/01/26 04:26:55;;;;;;;93.43;39.20;;;;;;;;;;770822;180;919576;-62
2022/01/26 04:29:21;;;;;;;82.72;37.80;;;;;;;;;;765644;181;919270;-61
2022/01/26 04:31:40;;;;;;;106.10;41.57;;;;;;;;;;779947;180;617289;-62
2022/01/26 04:34:06;;;;;;;92.37;38.83;;;;;;;;;;769594;180;919043;-62
2022/01/26 04:36:38;;;;;;;89.00;38.47;;;;;;;;;;767990;181;919093;-62
2022/01/26 04:39:06;;;;;;;106.00;40.13;;;;;;;;;;777968;180;919370;-62
2022/01/26 04:41:31;;;;;;;93.13;39.10;;;;;;;;;;773534;180;918982;-63
2022/01/26 04:43:54;;;;;;;101.23;40.70;;;;;;;;;;772555;179;1070559;-61
2022/01/26 04:46:16;;;;;;;79.67;34.97;;;;;;;;;;774505;178;919238;-62
2022/01/26 04:48:42;;;;;;;77.50;37.40;;;;;;;;;;780327;180;918542;-62
2022/01/26 04:51:07;;;;;;;78.90;36.97;;;;;;;;;;774613;180;919016;-62
2022/01/26 04:53:33;;;;;;;71.22;34.38;;;;;;;;;;771370;180;919879;-62
2022/01/26 04:55:59;;;;;;;67.80;31.60;;;;;;;;;;771419;180;917173;-62
2022/01/26 04:58:25;;;;;;;75.53;31.20;;;;;;;;;;774772;180;919314;-62
2022/01/26 05:00:51;;;;;;;88.97;33.00;;;;;;;;;;774731;180;919781;-62
2022/01/26 05:03:17;;;;;;;67.57;30.00;;;;;;;;;;776725;180;920016;-62
2022/01/26 05:05:43;;;;;;;79.87;30.93;;;;;;;;;;773144;180;919494;-62
2022/01/26 05:08:08;;;;;;;65.60;29.80;;;;;;;;;;771831;179;919613;-61
2022/01/26 05:10:37;;;;;;;71.23;29.90;;;;;;;;;;770679;180;1021691;-62
2022/01/26 05:13:00;;;;;;;67.63;29.73;;;;;;;;;;778284;180;625824;-62
2022/01/26 05:15:26;;;;;;;74.20;31.57;;;;;;;;;;772853;180;937329;-62
2022/01/26 05:17:52;;;;;;;71.00;28.87;;;;;;;;;;768560;181;917976;-61
2022/01/26 05:20:18;;;;;;;61.53;28.67;;;;;;;;;;773586;180;915755;-62
2022/01/26 05:22:44;;;;;;;54.47;27.20;;;;;;;;;;774496;179;915587;-62
2022/01/26 05:25:10;;;;;;;61.87;27.43;;;;;;;;;;773323;178;914979;-62
2022/01/26 05:27:35;;;;;;;66.50;26.33;;;;;;;;;;779798;178;919007;-63
2022/01/26 05:30:01;;;;;;;53.60;26.37;;;;;;;;;;774096;178;931592;-62
2022/01/26 05:32:27;;;;;;;50.40;24.23;;;;;;;;;;773633;180;919865;-61
2022/01/26 05:34:53;;;;;;;55.70;25.00;;;;;;;;;;775410;180;920073;-62
2022/01/26 05:37:19;;;;;;;51.47;23.53;;;;;;;;;;760898;181;919833;-62
2022/01/26 05:39:45;;;;;;;47.03;23.83;;;;;;;;;;758083;181;919034;-62
2022/01/26 05:42:11;;;;;;;46.30;22.73;;;;;;;;;;747628;184;920274;-62
2022/01/26 05:44:36;;;;;;;60.27;26.57;;;;;;;;;;752727;183;1021659;-62
2022/01/26 05:47:03;;;;;;;58.87;27.60;;;;;;;;;;755276;184;919499;-62
2022/01/26 05:49:28;;;;;;;51.47;26.50;;;;;;;;;;765738;177;919271;-62
2022/01/26 05:51:54;;;;;;;54.53;25.90;;;;;;;;;;777038;178;2147781;-61
2022/01/26 05:54:20;;;;;;;50.20;25.20;;;;;;;;;;779056;178;674923;-62
2022/01/26 05:56:47;;;;;;;60.13;28.17;;;;;;;;;;770504;181;624466;-62
2022/01/26 05:59:12;;;;;;;51.07;24.20;;;;;;;;;;781917;181;637934;-62
2022/01/26 06:01:37;;;;;;;54.20;25.30;;;;;;;;;;780204;180;620419;-62
2022/01/26 06:04:03;;;;;;;44.97;22.20;;;;;;;;;;776374;180;638704;-62
2022/01/26 06:06:29;;;;;;;63.17;28.27;;;;;;;;;;775989;178;894811;-62
2022/01/26 06:08:55;;;;;;;52.77;24.60;;;;;;;;;;779940;180;918135;-63
2022/01/26 06:11:21;;;;;;;52.80;24.47;;;;;;;;;;763581;181;1019364;-62
2022/01/26 06:13:47;;;;;;;50.67;23.27;;;;;;;;;;772820;181;1021291;-63
2022/01/26 06:16:14;;;;;;;49.67;23.95;;;;;;;;;;779308;178;917869;-62
2022/01/26 06:18:38;;;;;;;54.13;27.40;;;;;;;;;;760404;181;931262;-62
2022/01/26 06:21:08;;;;;;;56.43;26.07;;;;;;;;;;761336;180;918785;-62
2022/01/26 06:23:33;;;;;;;50.33;23.83;;;;;;;;;;773032;178;919443;-61
2022/01/26 06:25:59;;;;;;;59.87;28.53;;;;;;;;;;766027;181;919406;-62
2022/01/26 06:28:27;;;;;;;52.57;25.57;;;;;;;;;;767041;180;919347;-62
2022/01/26 06:30:52;;;;;;;48.97;24.48;;;;;;;;;;768294;180;918857;-62
2022/01/26 06:33:17;;;;;;;58.07;25.17;;;;;;;;;;778529;179;918455;-62
2022/01/26 06:35:42;;;;;;;48.37;26.10;;;;;;;;;;773836;180;919650;-62
2022/01/26 06:38:09;;;;;;;50.90;23.17;;;;;;;;;;773026;179;919683;-62
2022/01/26 06:40:34;;;;;;;46.50;22.20;;;;;;;;;;777634;177;919187;-62
2022/01/26 06:43:06;;;;;;;38.67;20.73;;;;;;;;;;775331;179;917299;-62
2022/01/26 06:45:31;;;;;;;40.40;18.57;;;;;;;;;;771324;179;914824;-62
2022/01/26 06:48:42;;;;;;;37.47;20.65;;;;;;;;;;780821;177;915001;-61
2022/01/26 06:50:36;;;;;;;36.87;18.33;;;;;;;;;;769884;182;919649;-62
2022/01/26 06:53:02;;;;;;;47.20;21.37;;;;;;;;;;769291;180;918036;-62
2022/01/26 06:55:28;;;;;;;43.30;22.57;;;;;;;;;;769386;180;919502;-62
2022/01/26 06:57:54;;;;;;;42.17;20.60;;;;;;;;;;774067;180;919762;-62
2022/01/26 07:00:19;;;;;;;42.92;20.83;;;;;;;;;;770543;181;918789;-62
2022/01/26 07:02:45;;;;;;;42.30;19.50;;;;;;;;;;773759;178;918944;-63
2022/01/26 07:05:11;;;;;;;43.30;18.63;;;;;;;;;;772582;181;919276;-62
2022/01/26 07:07:37;;;;;;;37.50;19.50;;;;;;;;;;774707;180;919092;-62
2022/01/26 07:10:03;;;;;;;29.97;16.50;;;;;;;;;;775419;180;965324;-62
2022/01/26 07:12:29;;;;;;;32.73;16.83;;;;;;;;;;779879;180;917765;-63
2022/01/26 07:20:53;;;;;;;39.77;20.43;;;;;;;;;;774765;178;1019314;-62
2022/01/26 07:22:33;;;;;;;45.17;20.70;;;;;;;;;;761242;180;1018346;-62
2022/01/26 07:24:58;;;;;;;38.80;20.77;;;;;;;;;;766624;180;916482;-62
2022/01/26 07:27:24;;;;;;;39.80;20.73;;;;;;;;;;767465;181;918996;-61
2022/01/26 07:29:50;;;;;;;46.53;23.20;;;;;;;;;;766846;180;919601;-62
2022/01/26 07:32:16;;;;;;;37.23;19.50;;;;;;;;;;765915;180;1022167;-62
2022/01/26 07:34:42;;;;;;;39.40;19.20;;;;;;;;;;774660;180;918973;-62
2022/01/26 07:37:10;;;;;;;44.73;21.23;;;;;;;;;;775363;177;919463;-62
2022/01/26 07:39:43;;;;;;;41.92;19.73;;;;;;;;;;763614;181;942406;-62
2022/01/26 07:42:10;;;;;;;43.40;21.73;;;;;;;;;;769957;178;917882;-62
2022/01/26 07:44:36;;;;;;;39.80;18.70;;;;;;;;;;771958;180;969743;-62
2022/01/26 07:47:02;;;;;;;40.30;20.37;;;;;;;;;;769742;180;919562;-63
2022/01/26 07:49:28;;;;;;;35.70;18.90;;;;;;;;;;772512;179;920035;-62
2022/01/26 07:51:53;;;;;;;41.73;20.23;;;;;;;;;;772665;180;919832;-61
2022/01/26 07:54:21;;;;;;;32.43;17.33;;;;;;;;;;769342;178;918805;-62
2022/01/26 07:56:46;;;;;;;39.33;20.00;;;;;;;;;;766944;178;919516;-62
2022/01/26 07:59:11;;;;;;;37.40;18.70;;;;;;;;;;774470;179;918771;-62
2022/01/26 08:01:37;;;;;;;36.90;18.20;;;;;;;;;;775151;181;918470;-64
2022/01/26 08:04:03;;;;;;;36.43;17.97;;;;;;;;;;755798;180;919341;-64
2022/01/26 08:06:29;;;;;;;40.10;19.70;;;;;;;;;;764545;180;919436;-64
2022/01/26 08:08:54;;;;;;;43.80;20.30;;;;;;;;;;781890;180;918567;-64
2022/01/26 08:11:20;;;;;;;40.17;19.37;;;;;;;;;;776288;179;919754;-64
2022/01/26 08:13:46;;;;;;;49.33;22.40;;;;;;;;;;773281;178;918079;-63
2022/01/26 08:16:12;;;;;;;39.07;18.67;;;;;;;;;;781626;178;919853;-64
2022/01/26 08:18:38;;;;;;;40.90;21.07;;;;;;;;;;773199;180;926204;-64
2022/01/26 08:21:06;;;;;;;43.23;22.60;;;;;;;;;;775870;177;919443;-65
2022/01/26 08:23:30;;;;;;;44.20;21.47;;;;;;;;;;774066;177;919025;-64
2022/01/26 08:25:55;;;;;;;44.50;21.93;;;;;;;;;;781449;180;918040;-64
2022/01/26 08:28:27;;;;;;;38.23;18.97;;;;;;;;;;772808;177;918828;-63
2022/01/26 08:30:47;;;;;;;45.03;19.17;;;;;;;;;;762508;181;918856;-64
2022/01/26 08:33:13;;;;;;;38.93;19.70;;;;;;;;;;778173;180;918315;-63
2022/01/26 08:35:39;;;;;;;37.30;19.37;;;;;;;;;;773890;178;1021510;-64
2022/01/26 08:38:05;;;;;;;43.38;19.70;;;;;;;;;;774932;180;920096;-65
2022/01/26 08:40:33;;;;;;;41.13;19.00;;;;;;;;;;773124;180;919788;-65
2022/01/26 08:42:56;;;;;;;43.03;21.10;;;;;;;;;;768251;179;920168;-64
2022/01/26 08:45:23;;;;;;;32.45;16.98;;;;;;;;;;772173;181;919593;-64
2022/01/26 08:47:49;;;;;;;36.97;17.97;;;;;;;;;;774626;177;918183;-64
2022/01/26 08:50:14;;;;;;;39.67;20.77;;;;;;;;;;777685;177;915476;-64
2022/01/26 08:52:40;;;;;;;34.33;17.25;;;;;;;;;;773239;177;917278;-64
2022/01/26 08:55:07;;;;;;;36.20;16.52;;;;;;;;;;775045;177;920134;-64
2022/01/26 08:57:32;;;;;;;40.53;18.97;;;;;;;;;;776784;180;920719;-63
2022/01/26 08:59:59;;;;;;;37.00;17.73;;;;;;;;;;770785;177;919248;-64
2022/01/26 09:02:24;;;;;;;42.43;19.13;;;;;;;;;;770210;179;918009;-64
2022/01/26 09:04:50;;;;;;;31.93;16.50;;;;;;;;;;768587;181;914119;-64
2022/01/26 09:07:16;;;;;;;36.30;18.40;;;;;;;;;;772871;179;919627;-64
2022/01/26 09:09:44;;;;;;;39.80;18.45;;;;;;;;;;774108;177;919990;-64
2022/01/26 09:12:08;;;;;;;38.83;17.87;;;;;;;;;;772022;179;916737;-63
2022/01/26 09:14:34;;;;;;;35.30;18.70;;;;;;;;;;775187;177;915081;-64
2022/01/26 09:17:02;;;;;;;37.80;20.40;;;;;;;;;;774540;178;919518;-64
2022/01/26 09:19:28;;;;;;;42.42;20.12;;;;;;;;;;774868;177;916991;-64
2022/01/26 09:21:52;;;;;;;46.13;20.60;;;;;;;;;;779134;179;1007319;-63
2022/01/26 09:24:18;;;;;;;41.40;18.63;;;;;;;;;;771023;179;919712;-64
2022/01/26 09:26:44;;;;;;;41.73;20.40;;;;;;;;;;764539;181;927929;-62
2022/01/26 09:29:10;;;;;;;36.53;17.53;;;;;;;;;;780224;180;919519;-64
2022/01/26 09:31:36;;;;;;;35.50;17.50;;;;;;;;;;773533;180;919988;-64
2022/01/26 09:34:01;;;;;;;32.90;17.50;;;;;;;;;;775064;180;918820;-62
2022/01/26 09:36:27;;;;;;;31.27;18.67;;;;;;;;;;766331;180;918671;-64
2022/01/26 09:38:53;;;;;;;38.90;20.25;;;;;;;;;;772543;179;919847;-64
2022/01/26 09:41:19;;;;;;;39.77;18.90;;;;;;;;;;771815;180;920130;-64
2022/01/26 09:43:45;;;;;;;34.00;17.47;;;;;;;;;;771939;179;919388;-64
2022/01/26 09:46:10;;;;;;;34.60;15.87;;;;;;;;;;780445;180;919256;-63
2022/01/26 09:48:38;;;;;;;29.17;15.43;;;;;;;;;;774512;179;918785;-64
2022/01/26 09:51:02;;;;;;;34.10;18.37;;;;;;;;;;773683;178;919756;-64
2022/01/26 09:53:30;;;;;;;39.80;16.37;;;;;;;;;;768852;180;916821;-63
2022/01/26 09:55:54;;;;;;;47.73;19.27;;;;;;;;;;773498;181;918870;-63
2022/01/26 09:58:20;;;;;;;40.60;18.57;;;;;;;;;;772958;179;920010;-62
2022/01/26 10:00:46;;;;;;;28.80;15.23;;;;;;;;;;761886;181;920245;-63
2022/01/26 10:03:12;;;;;;;35.50;19.87;;;;;;;;;;771398;181;918853;-64
2022/01/26 10:05:42;;;;;;;36.27;17.90;;;;;;;;;;765744;180;918628;-64
2022/01/26 10:08:15;;;;;;;38.23;17.37;;;;;;;;;;763188;180;920915;-64
2022/01/26 10:15:27;;;;;;;38.17;18.23;;;;;;;;;;774683;178;918643;-64
2022/01/26 10:15:34;;;;;;;36.57;18.23;;;;;;;;;;775550;180;923563;-63
2022/01/26 10:17:59;;;;;;;35.13;17.40;;;;;;;;;;774996;180;919506;-63
2022/01/26 10:20:25;;;;;;;35.60;14.80;;;;;;;;;;778515;179;916043;-63
2022/01/26 10:22:51;;;;;;;36.05;15.43;;;;;;;;;;773743;178;916203;-64
2022/01/26 10:25:17;;;;;;;30.97;16.10;;;;;;;;;;764945;181;922057;-64
2022/01/26 10:27:43;;;;;;;33.60;15.80;;;;;;;;;;769972;181;920000;-63
2022/01/26 10:30:11;;;;;;;30.90;16.33;;;;;;;;;;773343;179;918859;-63
2022/01/26 10:32:35;;;;;;;30.00;15.90;;;;;;;;;;775499;178;918761;-64
2022/01/26 10:35:01;;;;;;;28.97;16.20;;;;;;;;;;775336;177;919892;-62
2022/01/26 10:37:27;;;;;;;33.10;16.33;;;;;;;;;;768361;182;919179;-62
2022/01/26 10:39:56;;;;;;;31.47;14.43;;;;;;;;;;763785;181;919627;-64
2022/01/26 10:42:21;;;;;;;28.83;14.95;;;;;;;;;;774350;177;919197;-64
2022/01/26 10:44:50;;;;;;;30.50;12.77;;;;;;;;;;779318;180;921458;-63
2022/01/26 10:47:11;;;;;;;28.87;14.53;;;;;;;;;;774470;177;919313;-62
2022/01/26 10:52:18;;;;;;;23.92;13.98;;;;;;;;;;764008;180;919595;-61
2022/01/26 10:54:37;;;;;;;29.07;14.97;;;;;;;;;;782762;180;919393;-63
2022/01/26 10:57:01;;;;;;;27.70;14.00;;;;;;;;;;767394;179;919835;-62
2022/01/26 10:59:27;;;;;;;20.37;12.77;;;;;;;;;;766708;180;919802;-62
2022/01/26 11:01:53;;;;;;;24.90;14.70;;;;;;;;;;778989;181;921379;-63
2022/01/26 11:04:19;;;;;;;27.90;16.10;;;;;;;;;;772635;180;944553;-62
2022/01/26 11:06:45;;;;;;;24.63;14.67;;;;;;;;;;774102;180;922612;-63
2022/01/26 11:09:13;;;;;;;26.83;13.23;;;;;;;;;;779184;180;918866;-63
2022/01/26 11:11:39;;;;;;;20.13;11.03;;;;;;;;;;774066;179;920361;-63
2022/01/26 11:14:02;;;;;;;22.47;12.43;;;;;;;;;;774521;180;920319;-62
2022/01/26 11:16:29;;;;;;;22.27;11.25;;;;;;;;;;775051;180;918078;-61
2022/01/26 11:18:58;;;;;;;26.93;14.23;;;;;;;;;;773374;180;916844;-63
2022/01/26 11:21:26;;;;;;;27.27;14.97;;;;;;;;;;770626;179;1017992;-62
2022/01/26 11:23:52;;;;;;;28.83;14.00;;;;;;;;;;775179;178;916553;-63
2022/01/26 11:26:22;;;;;;;19.03;10.70;;;;;;;;;;773176;180;919169;-63
2022/01/26 11:28:48;;;;;;;20.80;12.50;;;;;;;;;;758722;181;919221;-63
2022/01/26 11:31:14;;;;;;;25.17;13.00;;;;;;;;;;772517;178;911726;-62
2022/01/26 11:33:40;;;;;;;20.17;12.87;;;;;;;;;;772956;180;919484;-63
2022/01/26 11:36:06;;;;;;;22.30;12.60;;;;;;;;;;779920;180;918184;-63
2022/01/26 11:39:13;;;;;;;25.87;14.30;;;;;;;;;;769168;178;919230;-62
2022/01/26 11:46:17;;;;;;;21.83;11.93;;;;;;;;;;776518;177;920089;-63
2022/01/26 11:48:42;;;;;;;21.47;11.97;;;;;;;;;;780806;177;1031525;-63
2022/01/26 11:51:08;;;;;;;26.70;13.57;;;;;;;;;;773719;177;1022070;-62
2022/01/26 11:53:34;;;;;;;22.37;11.40;;;;;;;;;;773347;179;918806;-63
2022/01/26 11:56:05;;;;;;;23.97;12.03;;;;;;;;;;781353;180;891551;-61
2022/01/26 11:58:27;;;;;;;26.37;13.87;;;;;;;;;;774584;180;919968;-62
2022/01/26 12:00:59;;;;;;;26.63;13.60;;;;;;;;;;776070;180;918927;-63
2022/01/26 12:03:29;;;;;;;28.17;15.97;;;;;;;;;;779487;180;920147;-63
2022/01/26 12:05:57;;;;;;;22.57;13.30;;;;;;;;;;780397;178;918002;-62
2022/01/26 12:08:26;;;;;;;32.90;13.80;;;;;;;;;;770543;179;919519;-61
2022/01/26 12:10:52;;;;;;;23.70;13.37;;;;;;;;;;766763;180;919523;-63
2022/01/26 12:13:21;;;;;;;26.80;13.90;;;;;;;;;;773598;180;1021502;-61
2022/01/26 12:15:50;;;;;;;22.33;13.30;;;;;;;;;;776874;180;918712;-62
2022/01/26 12:18:21;;;;;;;25.30;14.17;;;;;;;;;;769516;177;920048;-62
2022/01/26 12:33:59;;;;;;;29.43;15.17;;;;;;;;;;771322;180;920070;-62
2022/01/26 12:36:13;;;;;;;26.90;15.87;;;;;;;;;;762160;178;919076;-62
2022/01/26 12:38:33;;;;;;;30.70;15.87;;;;;;;;;;779178;180;917079;-62
2022/01/26 12:43:30;;;;;;;33.93;15.47;;;;;;;;;;774035;179;918827;-63
2022/01/26 12:45:56;;;;;;;25.57;14.47;;;;;;;;;;773561;178;918753;-62
2022/01/26 12:48:21;;;;;;;31.97;16.53;;;;;;;;;;779358;181;918710;-62
2022/01/26 12:50:47;;;;;;;28.23;15.03;;;;;;;;;;773868;180;919061;-63
2022/01/26 12:53:13;;;;;;;28.37;15.77;;;;;;;;;;771587;179;923295;-62
2022/01/26 12:55:39;;;;;;;31.23;14.55;;;;;;;;;;776681;180;919408;-62
2022/01/26 12:58:05;;;;;;;25.23;14.40;;;;;;;;;;774856;179;915125;-63
2022/01/26 13:00:37;;;;;;;27.80;16.33;;;;;;;;;;774225;179;922005;-63
2022/01/26 13:03:03;;;;;;;28.97;14.67;;;;;;;;;;776306;177;915055;-62
2022/01/26 13:05:29;;;;;;;23.50;12.93;;;;;;;;;;778040;180;919809;-67
2022/01/26 13:08:00;;;;;;;29.20;14.27;;;;;;;;;;776483;178;919283;-63
2022/01/26 13:10:28;;;;;;;27.50;14.70;;;;;;;;;;777467;180;643693;-63
2022/01/26 13:12:52;;;;;;;25.67;13.73;;;;;;;;;;772614;177;1021237;-62
2022/01/26 13:15:23;;;;;;;27.10;14.20;;;;;;;;;;779255;178;917931;-63
2022/01/26 13:17:54;;;;;;;27.20;12.77;;;;;;;;;;776670;180;631975;-63
2022/01/26 13:20:33;;;;;;;29.03;11.97;;;;;;;;;;772989;178;921333;-62
2022/01/26 13:23:39;;;;;;;29.23;15.37;;;;;;;;;;772356;180;919353;-63
2022/01/26 13:28:16;;;;;;;31.43;14.37;;;;;;;;;;779413;178;919417;-62
2022/01/26 13:30:55;;;;;;;26.20;13.73;;;;;;;;;;768793;179;919121;-63
2022/01/26 13:33:32;;;;;;;21.57;12.20;;;;;;;;;;768246;180;919193;-63
2022/01/26 13:35:45;;;;;;;30.77;15.63;;;;;;;;;;766732;179;919662;-62
2022/01/26 13:38:15;;;;;;;24.67;13.87;;;;;;;;;;773119;179;1019914;-62
2022/01/26 13:40:48;;;;;;;22.67;13.73;;;;;;;;;;776948;180;919003;-64
2022/01/26 13:46:29;;;;;;;29.60;14.35;;;;;;;;;;770017;180;908709;-63
2022/01/26 13:54:10;;;;;;;24.87;13.83;;;;;;;;;;774334;178;1018218;-63
2022/01/26 13:57:09;;;;;;;27.70;14.20;;;;;;;;;;765244;181;919595;-62
2022/01/26 14:01:46;;;;;;;28.87;14.13;;;;;;;;;;772510;178;920667;-64
2022/01/26 14:04:10;;;;;;;22.07;14.17;;;;;;;;;;778156;178;631432;-64
2022/01/26 14:06:36;;;;;;;27.03;13.00;;;;;;;;;;775703;180;629322;-64
2022/01/26 14:09:01;;;;;;;21.73;13.40;;;;;;;;;;774388;178;1031538;-63
2022/01/26 14:11:27;;;;;;;23.67;14.43;;;;;;;;;;775651;179;916548;-63
2022/01/26 14:13:56;;;;;;;27.60;13.53;;;;;;;;;;783749;180;918991;-63
2022/01/26 14:16:21;;;;;;;24.00;15.07;;;;;;;;;;772532;177;919288;-63
2022/01/26 14:19:02;;;;;;;22.53;13.07;;;;;;;;;;761673;180;918611;-64
2022/01/26 14:24:00;;;;;;;21.63;11.83;;;;;;;;;;778686;180;930675;-64
2022/01/26 14:26:29;;;;;;;24.63;11.83;;;;;;;;;;778498;179;918744;-63
2022/01/26 14:28:50;;;;;;;19.77;11.20;;;;;;;;;;773288;180;918223;-64
2022/01/26 14:54:22;;;;;;;27.17;13.23;;;;;;;;;;765799;181;920186;-63
2022/01/26 15:21:33;;;;;;;23.10;13.50;;;;;;;;;;773251;179;917246;-63
2022/01/26 15:29:59;;;;;;;25.47;14.37;;;;;;;;;;777948;179;919607;-62
2022/01/26 15:31:35;;;;;;;26.58;14.77;;;;;;;;;;772194;178;915856;-63
2022/01/26 15:40:05;;;;;;;25.13;12.73;;;;;;;;;;766270;178;919199;-63
2022/01/26 15:41:04;;;;;;;25.97;13.97;;;;;;;;;;773002;180;911814;-62
2022/01/26 15:50:58;;;;;;;27.50;16.60;;;;;;;;;;772958;180;918689;-63
2022/01/26 15:57:17;;;;;;;28.07;14.87;;;;;;;;;;768678;180;918936;-63
2022/01/26 15:58:45;;;;;;;25.57;15.33;;;;;;;;;;772832;180;919615;-63
2022/01/26 16:06:11;;;;;;;27.37;16.40;;;;;;;;;;768579;180;920125;-63
2022/01/26 16:12:38;;;;;;;26.67;14.75;;;;;;;;;;776378;180;922154;-63
2022/01/26 16:21:20;;;;;;;33.73;17.37;;;;;;;;;;768680;180;918967;-63
2022/01/26 16:26:24;;;;;;;24.97;15.80;;;;;;;;;;774464;180;919274;-63
2022/01/26 16:37:41;;;;;;;31.47;16.27;;;;;;;;;;781041;178;917032;-64
2022/01/26 16:39:09;;;;;;;33.13;17.20;;;;;;;;;;777443;178;914173;-63
2022/01/26 17:12:39;;;;;;;28.70;14.90;;;;;;;;;;774325;178;919139;-64
2022/01/26 17:24:23;;;;;;;30.87;17.33;;;;;;;;;;777396;180;630619;-63
2022/01/26 17:24:52;;;;;;;26.13;14.90;;;;;;;;;;775070;178;626957;-62
2022/01/26 17:34:26;;;;;;;28.77;16.03;;;;;;;;;;778063;178;923017;-63
2022/01/26 17:37:50;;;;;;;28.23;16.50;;;;;;;;;;772853;180;918664;-63
2022/01/26 17:47:38;;;;;;;22.00;12.80;;;;;;;;;;771707;181;916699;-62
2022/01/26 18:05:48;;;;;;;35.40;21.67;;;;;;;;;;760710;181;918754;-63
2022/01/26 18:15:32;;;;;;;31.70;20.30;;;;;;;;;;772753;180;918983;-61
2022/01/26 18:17:54;;;;;;;36.70;20.53;;;;;;;;;;764430;180;919088;-63
2022/01/26 18:33:13;;;;;;;21.08;13.15;;;;;;;;;;772706;180;919132;-63
2022/01/26 18:46:23;;;;;;;20.63;12.30;;;;;;;;;;777076;180;919181;-62
2022/01/26 18:50:53;;;;;;;19.48;11.75;;;;;;;;;;772988;180;919163;-62
2022/01/26 18:53:19;;;;;;;17.87;12.97;;;;;;;;;;779633;180;919288;-63
2022/01/26 18:55:45;;;;;;;17.87;11.97;;;;;;;;;;772627;179;919464;-63
2022/01/26 18:58:11;;;;;;;18.20;10.97;;;;;;;;;;774666;179;919623;-62
2022/01/26 19:00:37;;;;;;;22.13;13.07;;;;;;;;;;781086;179;919779;-63
2022/01/26 19:03:03;;;;;;;18.27;11.73;;;;;;;;;;775465;180;918700;-62
2022/01/26 19:05:28;;;;;;;17.80;11.70;;;;;;;;;;774460;181;919883;-63